Forside
METAR-TAF:

METAR-TAF

Lufthavne :

Växjö, Sverige

Breddekreds: 56-51N, længdekreds: 014-50E, højde: 199 m

Aktuelle vejr

Denne rapport blev lavet for 5 minutter siden, kl. 14:50 UTC
Vind 12 kt fra nordnordøst, varierende mellem nordnordvest og nordøst
Temperatur 16°C
Fugtighed 31%
Tryk 1025 hPa
Sigt 10 km eller mere

METAR: ESMX 171450Z AUTO 02012KT 340V050 9999 FEW200/// 16/M01 Q1025

Tid: 16:55 (14:55 UTC)


TAF: fraværende

Vejrobservationer og prognoser fra mere end 4000 lufthavne (METAR og TAF).

De gule og røde prikker repræsenterer de meteorologiske stationer.

Flyt musen over at se navnet på stationen.

Så klik over at se vejr observationer og prognoser.

At skifte det kort: Klik på de grønne knapper med et sort kors for at zoome ind; på den grønne knap med en bindestreg for at zoome ud; eller på de grønne pile for tilstødende kort.


METAR-TAF: